sim
Sign-in with your pilot id or email,
or register
Callsign
Passwort

Schedule Details

Flight Number: DLH2129
Departure: Dresden Airport (EDDC) at 19:30
Arrival: Munich Airport (EDDM) at 20:25
Route: Lufthansa Passenger Schedule. Enter filed route here before submitting Pirep.

Weather Information
Getting current METAR information for EDDC 191520Z 07012KT CAVOK 20/04 Q1020 NOSIG
Getting current METAR information for EDDM 191520Z 04004KT 350V080 CAVOK 21/12 Q1017 NOSIG

Schedule Frequency

Route Map